Warning: Javascript must be enabled to use all the features on this page!


Page Loading - Please Wait...

Click to hideNews Bulletins

Peak Streamflow for the Nation

USGS 03241500 Massies Creek at Wilberforce OH

Greene County, Ohio
Hydrologic Unit Code 05090202
Latitude  39°43'20.6", Longitude  83°52'56.3" NAD83
Drainage area 63.2  square miles
Contributing drainage area 63.2  square miles
Gage datum 865.03 feet above NAVD88
Output formats
Table
Graph
Tab-separated file
peakfq (watstore) format
Reselect output format
Water
Year
Date Gage
Height
(feet)
Stream-
flow
(cfs)
1953 1953-01-18 4.45 390
1954 1954-08-27 4.00 256
1955 1955-03-22 6.53 1,090
1956 1956-04-03 6.84 1,250
1957 1957-04-04 8.34 2,160
1958 1958-08-02 10.35 4,300
1959 1959-01-21 11.25 7,300
1960 1960-05-28 4.83 510
1961 1961-08-11 7.52 1,630
1962 1962-02-26 7.15 1,370
1963 1963-03-04 11.25 7,300
1964 1964-03-10 9.56 3,380
1965 1965-02-11 5.46 794
1966 1966-04-30 5.27 718
1967 1967-03-06 5.69 886
1968 1968-05-24 9.36 3,440
1969 1969-06-24 6.49 1,210
1970 1970-05-12 7.74 1,880
1971 1971-06-26 8.63 2,630
1972 1972-04-12 6.53 1,220
1973 1973-04-18 5.623 868
1974 1974-04-04 6.973 1,440
1975 1975-07-04 9.163 3,200
1976 1976-02-18 6.293 1,110
1977 1977-07-21 4.543 500
1978 1978-03-15 7.063 1,480
1979 1979-04-14 7.473 1,700
1980 1980-06-28 8.32 2,570
1981 1981-06-05 9.52 3,600
1982 1982-01-31 8.34 2,590
1983 1983-07-18 9.49 3,580
1984 1984-02-13 5.262 761
1985 1985-02-24   1,1002
1986 1985-11-28 6.44 1,310
1987 1987-06-03 6.64 1,420
1988 1988-02-02 5.00 660
1989 1989-05-26 10.32 4,370
1990 1990-07-12 8.80 2,110
1991 1990-12-30 8.48 1,920
1992 1992-07-26 7.22 1,280
1993 1993-03-05 6.28 901
1994 1994-01-28 7.641 1,340
1995 1995-08-06 6.13 846
1996 1996-04-29 8.15 1,730
1997 1997-06-02 7.74 1,540
1998 1998-04-16 7.95 1,640
1999 1999-01-18 5.40 579
2000 2000-07-19 6.96 1,170
2001 2001-04-11 9.04 2,220
2002 2001-12-17 7.04 1,220
2003 2003-07-09 8.01 1,700
2004 2004-01-04 9.82 2,590
2005 2005-01-06 9.00 2,210
2006 2006-03-12 7.10 1,290
2007 2007-03-01 8.71 1,930
2008 2008-06-04 9.51 2,500
2009 2009-02-11 4.84 512
2010 2010-03-14 7.35 1,390
2011 2011-04-20 9.70 3,380
2012 2011-12-06 8.52 2,340
2013 2013-07-09 5.37 803
2014 2014-05-21 9.95 3,660
2015 2015-06-20 8.11 2,050
2016 2015-12-29 6.46 1,200
2017 2017-03-20 7.16 1,520
2018 2018-02-25 8.55 2,370
2019 2019-06-17 7.06 1,470
2020 2020-03-20 10.05 3,590
2021 2021-08-31 6.62 1,240
?
  Peak Gage-Height Qualification Codes.
?
  Peak Streamflow Qualification Codes.